Time;durP1;ratioP1;P1;durP2;ratioP2;P2;SDS_P1;SDS_P2;PMS_P1;PMS_P2;Temp;Humidity;BMP_temperature;BMP_pressure;BME280_temperature;BME280_humidity;BME280_pressure;Samples;Min_cycle;Max_cycle;Signal;HPM_P1;HPM_P2
2023/06/20 00:01:00;;;;;;;14.38;12.45;;;17.70;99.90;;;;;;5066347;28;20584;-78
2023/06/20 00:03:26;;;;;;;14.98;11.55;;;17.80;99.90;;;;;;5030078;28;20048;-77
2023/06/20 00:05:52;;;;;;;14.57;11.95;;;17.70;99.90;;;;;;5050611;28;20040;-75
2023/06/20 00:08:17;;;;;;;15.00;12.10;;;17.70;99.90;;;;;;5067959;28;20047;-76
2023/06/20 00:10:43;;;;;;;14.60;11.52;;;17.70;99.90;;;;;;5045156;28;20485;-77
2023/06/20 00:13:09;;;;;;;17.05;12.60;;;17.70;99.90;;;;;;5034254;28;20045;-77
2023/06/20 00:15:34;;;;;;;14.43;11.65;;;17.70;99.90;;;;;;5048170;28;20045;-75
2023/06/20 00:18:00;;;;;;;16.60;12.00;;;17.60;99.90;;;;;;5058326;28;20507;-75
2023/06/20 00:20:30;;;;;;;15.18;12.30;;;17.60;99.90;;;;;;5057892;28;20083;-77
2023/06/20 00:22:56;;;;;;;15.70;12.30;;;17.70;99.90;;;;;;5048799;28;20052;-76
2023/06/20 00:25:22;;;;;;;13.88;12.40;;;17.70;99.90;;;;;;5048481;28;20067;-76
2023/06/20 00:27:48;;;;;;;17.38;12.82;;;17.60;99.90;;;;;;5013200;28;20041;-77
2023/06/20 00:30:15;;;;;;;14.88;13.05;;;17.60;99.90;;;;;;5030929;28;20052;-78
2023/06/20 00:32:41;;;;;;;17.05;12.77;;;17.60;99.90;;;;;;5074185;28;20066;-77
2023/06/20 00:35:07;;;;;;;14.93;12.75;;;17.60;99.90;;;;;;5033966;28;20033;-78
2023/06/20 00:37:36;;;;;;;17.20;12.60;;;17.50;99.90;;;;;;5052310;28;20037;-75
2023/06/20 00:40:04;;;;;;;18.58;14.23;;;17.50;99.90;;;;;;5051406;28;20048;-79
2023/06/20 00:42:30;;;;;;;14.63;12.95;;;17.50;99.90;;;;;;5034487;28;20122;-76
2023/06/20 00:44:55;;;;;;;15.93;12.57;;;17.50;99.90;;;;;;5054652;28;20044;-81
2023/06/20 00:47:21;;;;;;;14.77;13.23;;;17.50;99.90;;;;;;5051907;28;20046;-78
2023/06/20 00:49:49;;;;;;;12.60;11.27;;;17.50;99.90;;;;;;5064192;28;20044;-78
2023/06/20 00:52:16;;;;;;;13.10;11.63;;;17.30;99.90;;;;;;5071384;28;20182;-80
2023/06/20 00:54:44;;;;;;;13.43;12.02;;;17.40;99.90;;;;;;5060984;28;20088;-77
2023/06/20 00:57:12;;;;;;;13.43;11.95;;;17.30;99.90;;;;;;5062491;28;20047;-78
2023/06/20 00:59:38;;;;;;;15.35;12.73;;;17.30;99.90;;;;;;5070468;28;20518;-77
2023/06/20 01:02:04;;;;;;;13.68;12.15;;;17.30;99.90;;;;;;5054696;28;20045;-79
2023/06/20 01:04:31;;;;;;;14.05;11.88;;;17.30;99.90;;;;;;5048292;28;20032;-79
2023/06/20 01:07:11;;;;;;;14.07;11.18;;;17.30;99.90;;;;;;5068940;28;20037;-78
2023/06/20 01:10:11;;;;;;;12.10;10.68;;;17.30;99.90;;;;;;5056217;28;20044;-79
2023/06/20 01:12:47;;;;;;;11.75;10.43;;;17.30;99.90;;;;;;5068809;28;20044;-78
2023/06/20 01:15:37;;;;;;;12.00;10.23;;;17.30;99.90;;;;;;5065807;28;20036;-76
2023/06/20 01:18:34;;;;;;;15.07;12.23;;;17.30;99.90;;;;;;5048280;28;20033;-79
2023/06/20 01:21:29;;;;;;;13.10;10.77;;;17.30;99.90;;;;;;5077992;28;20049;-80
2023/06/20 01:24:04;;;;;;;13.13;11.73;;;17.40;99.90;;;;;;5067229;28;20432;-76
2023/06/20 01:26:47;;;;;;;13.20;10.32;;;17.40;99.90;;;;;;5036998;28;20041;-78
2023/06/20 01:29:15;;;;;;;12.98;11.23;;;17.30;99.90;;;;;;5057344;28;20041;-79
2023/06/20 01:31:47;;;;;;;13.48;10.93;;;17.30;99.90;;;;;;5051701;28;20037;-77
2023/06/20 01:34:16;;;;;;;12.32;11.02;;;17.30;99.90;;;;;;5068393;28;20119;-80
2023/06/20 01:36:47;;;;;;;12.20;10.90;;;17.20;99.90;;;;;;5051653;28;20072;-80
2023/06/20 01:39:18;;;;;;;14.80;11.77;;;17.20;99.90;;;;;;5054301;28;20048;-77
2023/06/20 01:41:45;;;;;;;13.05;10.85;;;17.30;99.90;;;;;;5081490;28;20036;-77
2023/06/20 01:44:13;;;;;;;12.68;11.18;;;17.20;99.90;;;;;;5034398;28;20135;-76
2023/06/20 01:46:40;;;;;;;11.45;10.25;;;17.30;99.90;;;;;;5062188;28;20040;-76
2023/06/20 01:49:08;;;;;;;13.85;11.52;;;17.30;99.90;;;;;;5035730;28;20040;-77
2023/06/20 01:51:34;;;;;;;12.90;11.60;;;17.20;99.90;;;;;;5033529;28;20045;-76
2023/06/20 01:54:03;;;;;;;13.77;11.43;;;17.30;99.90;;;;;;5033727;28;20424;-77
2023/06/20 01:56:31;;;;;;;12.15;10.48;;;17.20;99.90;;;;;;5055498;28;20106;-76
2023/06/20 01:59:00;;;;;;;13.05;10.65;;;17.20;99.90;;;;;;5049141;28;20400;-79
2023/06/20 02:01:27;;;;;;;16.60;11.13;;;17.30;99.90;;;;;;5057756;28;20047;-77
2023/06/20 02:03:56;;;;;;;13.27;11.05;;;17.20;99.90;;;;;;5051149;28;20458;-80
2023/06/20 02:06:24;;;;;;;13.20;10.95;;;17.10;99.90;;;;;;5051940;28;20048;-77
2023/06/20 02:08:51;;;;;;;12.23;10.95;;;17.10;99.90;;;;;;5060795;28;20045;-78
2023/06/20 02:11:18;;;;;;;11.95;10.65;;;17.00;99.90;;;;;;5033135;28;20073;-77
2023/06/20 02:13:45;;;;;;;13.63;10.70;;;17.10;99.90;;;;;;5050982;28;20043;-75
2023/06/20 02:16:12;;;;;;;13.88;10.73;;;17.00;99.90;;;;;;5056353;28;20035;-77
2023/06/20 02:18:38;;;;;;;12.75;11.30;;;17.00;99.90;;;;;;5042341;28;20116;-78
2023/06/20 02:21:06;;;;;;;15.27;11.55;;;16.90;99.90;;;;;;5038401;28;20652;-76
2023/06/20 02:23:34;;;;;;;11.98;10.75;;;17.00;99.90;;;;;;5046279;28;20045;-75
2023/06/20 02:26:09;;;;;;;15.05;12.20;;;17.00;99.90;;;;;;5063411;28;20052;-78
2023/06/20 02:28:46;;;;;;;11.73;10.43;;;16.90;99.90;;;;;;5042679;28;20068;-78
2023/06/20 02:31:17;;;;;;;12.85;11.43;;;16.90;99.90;;;;;;5059640;28;20110;-77
2023/06/20 02:33:44;;;;;;;14.85;12.30;;;16.90;99.90;;;;;;5033734;28;20127;-78
2023/06/20 02:36:12;;;;;;;13.85;11.52;;;16.90;99.90;;;;;;5051733;28;20041;-80
2023/06/20 02:38:38;;;;;;;16.35;12.30;;;16.90;99.90;;;;;;5065136;28;20050;-79
2023/06/20 02:41:04;;;;;;;13.40;11.60;;;16.80;99.90;;;;;;5061037;28;20033;-77
2023/06/20 02:43:30;;;;;;;17.27;12.73;;;16.90;99.90;;;;;;5056424;28;20036;-80
2023/06/20 02:46:11;;;;;;;15.52;12.52;;;16.90;99.90;;;;;;5070523;28;20040;-77
2023/06/20 02:48:52;;;;;;;17.85;13.20;;;16.90;99.90;;;;;;5057190;28;20041;-78
2023/06/20 02:51:33;;;;;;;14.57;13.05;;;16.90;99.90;;;;;;5049224;28;20039;-78
2023/06/20 02:54:26;;;;;;;14.00;12.18;;;17.00;99.90;;;;;;5056356;28;20154;-78
2023/06/20 02:56:55;;;;;;;14.13;12.30;;;16.90;99.90;;;;;;5076179;28;20045;-79
2023/06/20 02:59:27;;;;;;;13.82;12.00;;;17.00;99.90;;;;;;5061946;28;20047;-79
2023/06/20 03:01:57;;;;;;;14.55;13.05;;;17.00;99.90;;;;;;5063217;28;20438;-77
2023/06/20 03:04:27;;;;;;;16.05;13.07;;;17.00;99.90;;;;;;5045726;28;20041;-77
2023/06/20 03:06:54;;;;;;;16.13;12.60;;;17.00;99.90;;;;;;5050635;28;20074;-76
2023/06/20 03:09:22;;;;;;;17.95;13.00;;;17.00;99.90;;;;;;5035955;28;20036;-77
2023/06/20 03:11:47;;;;;;;16.60;13.23;;;17.00;99.90;;;;;;5036567;28;20182;-75
2023/06/20 03:14:13;;;;;;;15.05;13.20;;;17.00;99.90;;;;;;5034916;28;20128;-80
2023/06/20 03:16:42;;;;;;;15.15;12.52;;;17.00;99.90;;;;;;5069504;28;20067;-76
2023/06/20 03:19:13;;;;;;;15.50;13.18;;;17.00;99.90;;;;;;5072538;28;20051;-77
2023/06/20 03:21:39;;;;;;;14.50;12.30;;;17.00;99.90;;;;;;5033581;28;20029;-79
2023/06/20 03:24:06;;;;;;;16.13;13.85;;;16.90;99.90;;;;;;5032642;28;20047;-78
2023/06/20 03:26:37;;;;;;;16.83;13.85;;;17.00;99.90;;;;;;5084420;28;20131;-74
2023/06/20 03:29:03;;;;;;;15.00;13.40;;;17.00;99.90;;;;;;5048243;28;20039;-75
2023/06/20 03:31:29;;;;;;;16.25;13.15;;;17.00;99.90;;;;;;5037652;28;20048;-79
2023/06/20 03:33:54;;;;;;;14.95;13.10;;;16.90;99.90;;;;;;5054665;28;20041;-75
2023/06/20 03:36:20;;;;;;;14.55;13.07;;;17.10;99.90;;;;;;5064218;28;20048;-76
2023/06/20 03:38:46;;;;;;;14.98;13.38;;;17.10;99.90;;;;;;5073130;28;20036;-78
2023/06/20 03:41:12;;;;;;;14.48;12.88;;;17.20;99.90;;;;;;5060542;28;20041;-77
2023/06/20 03:43:37;;;;;;;14.40;12.73;;;17.20;99.90;;;;;;5072970;28;20041;-76
2023/06/20 03:46:03;;;;;;;14.75;12.70;;;17.20;99.90;;;;;;5065621;28;20071;-76
2023/06/20 03:48:29;;;;;;;16.92;13.57;;;17.20;99.90;;;;;;5030445;28;20033;-78
2023/06/20 03:50:54;;;;;;;15.32;12.95;;;17.10;99.90;;;;;;5031170;28;20125;-78
2023/06/20 03:53:20;;;;;;;15.98;12.95;;;17.30;99.90;;;;;;5035475;28;20557;-75
2023/06/20 03:55:45;;;;;;;14.55;12.95;;;17.20;99.90;;;;;;5047010;28;20634;-75
2023/06/20 03:58:11;;;;;;;13.90;12.27;;;17.20;99.90;;;;;;5068512;28;20476;-80
2023/06/20 04:00:38;;;;;;;14.82;13.27;;;17.30;99.90;;;;;;5046196;28;20067;-78
2023/06/20 04:03:04;;;;;;;14.85;12.68;;;17.20;99.90;;;;;;5043422;28;20051;-75
2023/06/20 04:05:30;;;;;;;15.52;13.20;;;17.30;99.90;;;;;;5031368;28;20072;-80
2023/06/20 04:07:55;;;;;;;14.43;12.90;;;17.40;99.90;;;;;;5042804;28;20064;-77
2023/06/20 04:10:21;;;;;;;14.60;13.10;;;17.30;99.90;;;;;;5059648;28;20040;-76
2023/06/20 04:12:47;;;;;;;14.82;11.93;;;17.40;99.90;;;;;;5040853;28;20531;-78
2023/06/20 04:15:13;;;;;;;14.27;12.82;;;17.30;99.90;;;;;;5061724;28;20048;-78
2023/06/20 04:17:40;;;;;;;16.60;13.77;;;17.40;99.90;;;;;;5053807;28;20033;-78
2023/06/20 04:20:14;;;;;;;15.23;12.32;;;17.40;99.90;;;;;;5053644;28;20044;-75
2023/06/20 04:22:44;;;;;;;16.02;12.80;;;17.30;99.90;;;;;;5035689;28;20484;-77
2023/06/20 04:25:10;;;;;;;14.88;13.27;;;17.40;99.90;;;;;;5062986;28;20404;-78
2023/06/20 04:27:36;;;;;;;15.77;13.35;;;17.40;99.90;;;;;;5068126;28;20665;-73
2023/06/20 04:30:04;;;;;;;15.75;14.05;;;17.40;99.90;;;;;;5063881;28;20133;-73
2023/06/20 04:32:30;;;;;;;16.90;13.85;;;17.50;99.90;;;;;;5061230;28;20045;-76
2023/06/20 04:34:55;;;;;;;17.38;14.15;;;17.50;99.90;;;;;;5045686;28;20048;-76
2023/06/20 04:37:21;;;;;;;17.42;14.68;;;17.50;99.90;;;;;;5033456;28;20084;-76
2023/06/20 04:39:47;;;;;;;16.00;14.30;;;17.50;99.90;;;;;;5070858;28;20036;-76
2023/06/20 04:42:12;;;;;;;18.45;14.18;;;17.60;99.90;;;;;;5039394;28;20119;-78
2023/06/20 04:44:38;;;;;;;15.50;13.80;;;17.60;99.90;;;;;;5042531;28;20425;-76
2023/06/20 04:47:04;;;;;;;17.27;13.75;;;17.60;99.90;;;;;;5087693;28;20518;-75
2023/06/20 04:49:29;;;;;;;15.38;13.77;;;17.60;99.90;;;;;;5051760;28;20041;-76
2023/06/20 04:51:58;;;;;;;17.98;14.85;;;17.80;99.90;;;;;;5075171;28;20492;-75
2023/06/20 04:54:24;;;;;;;16.77;14.07;;;17.70;99.90;;;;;;5030197;28;20040;-75
2023/06/20 04:56:50;;;;;;;15.95;14.32;;;17.80;99.90;;;;;;5087653;28;20048;-75
2023/06/20 04:59:16;;;;;;;15.23;13.45;;;17.80;99.90;;;;;;5044987;28;20037;-72
2023/06/20 05:01:42;;;;;;;14.95;13.35;;;17.90;99.90;;;;;;5037644;28;20729;-74
2023/06/20 05:04:08;;;;;;;16.77;13.63;;;17.90;99.90;;;;;;5057170;28;20056;-77
2023/06/20 05:06:33;;;;;;;15.52;13.82;;;17.90;99.90;;;;;;5019040;28;20069;-76
2023/06/20 05:08:59;;;;;;;16.08;14.35;;;18.00;99.90;;;;;;5063212;28;20049;-76
2023/06/20 05:11:26;;;;;;;16.67;14.30;;;17.90;99.90;;;;;;5036837;28;20052;-78
2023/06/20 05:13:52;;;;;;;17.52;13.55;;;18.00;99.90;;;;;;5037191;28;20070;-77
2023/06/20 05:16:17;;;;;;;17.02;14.10;;;18.10;99.90;;;;;;5036192;28;20855;-76
2023/06/20 05:18:46;;;;;;;14.73;13.27;;;18.10;99.90;;;;;;5049669;28;20047;-77
2023/06/20 05:21:12;;;;;;;17.20;14.30;;;18.10;99.90;;;;;;5062079;28;20060;-74
2023/06/20 05:23:38;;;;;;;18.05;14.70;;;18.00;99.90;;;;;;5040417;28;20040;-78
2023/06/20 05:26:03;;;;;;;15.60;13.43;;;18.10;99.90;;;;;;5058796;28;20033;-75
2023/06/20 05:28:29;;;;;;;15.48;13.30;;;18.20;99.90;;;;;;5038070;28;20060;-75
2023/06/20 05:30:55;;;;;;;14.15;12.65;;;18.10;99.90;;;;;;5052000;28;20498;-75
2023/06/20 05:33:20;;;;;;;14.50;12.48;;;18.20;99.90;;;;;;5044053;28;20114;-77
2023/06/20 05:35:46;;;;;;;14.82;13.32;;;18.10;99.90;;;;;;5055994;28;20047;-77
2023/06/20 05:38:15;;;;;;;16.30;13.15;;;18.20;99.90;;;;;;5043779;28;20044;-75
2023/06/20 05:40:41;;;;;;;13.43;11.93;;;18.20;99.90;;;;;;5052524;28;20051;-77
2023/06/20 05:43:07;;;;;;;16.17;13.50;;;18.30;99.90;;;;;;5034298;28;20401;-75
2023/06/20 05:45:33;;;;;;;14.50;13.07;;;18.30;99.90;;;;;;5063272;28;20059;-74
2023/06/20 05:47:58;;;;;;;15.43;13.00;;;18.30;99.90;;;;;;5048854;28;20045;-76
2023/06/20 05:50:30;;;;;;;13.38;12.07;;;18.30;99.90;;;;;;5050677;28;20040;-76
2023/06/20 05:52:56;;;;;;;12.65;11.35;;;18.40;99.90;;;;;;5051554;28;20047;-76
2023/06/20 05:55:22;;;;;;;14.63;12.95;;;18.50;99.90;;;;;;5052473;28;20476;-76
2023/06/20 05:57:47;;;;;;;15.32;13.30;;;18.50;99.90;;;;;;5047544;28;20504;-76
2023/06/20 06:00:13;;;;;;;16.67;14.00;;;18.50;99.90;;;;;;5057629;28;20097;-76
2023/06/20 06:02:40;;;;;;;15.55;12.50;;;18.50;99.90;;;;;;5050199;28;20044;-76
2023/06/20 06:05:06;;;;;;;15.48;12.95;;;18.50;99.90;;;;;;5034159;28;20047;-79
2023/06/20 06:07:32;;;;;;;14.75;11.98;;;18.60;99.90;;;;;;5049537;28;20032;-77
2023/06/20 06:09:57;;;;;;;14.25;12.77;;;18.70;99.90;;;;;;5068945;28;20048;-76
2023/06/20 06:12:23;;;;;;;14.80;12.48;;;18.80;99.90;;;;;;5043778;28;20063;-78
2023/06/20 06:14:51;;;;;;;15.90;13.35;;;18.80;99.90;;;;;;5068060;28;20106;-79
2023/06/20 06:17:17;;;;;;;14.30;12.50;;;18.90;99.90;;;;;;5026910;28;20081;-76
2023/06/20 06:19:42;;;;;;;19.08;13.45;;;18.90;99.90;;;;;;5057586;28;20037;-79
2023/06/20 06:22:08;;;;;;;15.90;13.43;;;19.00;99.90;;;;;;5067424;28;20036;-76
2023/06/20 06:24:34;;;;;;;14.98;12.68;;;19.10;99.90;;;;;;5028771;28;20049;-78
2023/06/20 06:26:59;;;;;;;14.90;12.02;;;19.30;99.90;;;;;;5060369;28;20497;-76
2023/06/20 06:29:27;;;;;;;16.08;12.63;;;19.40;99.90;;;;;;5062829;28;20043;-78
2023/06/20 06:31:54;;;;;;;13.98;12.57;;;19.50;99.90;;;;;;5032438;28;20036;-76
2023/06/20 06:34:19;;;;;;;14.00;11.80;;;19.60;99.90;;;;;;5049792;28;20049;-75
2023/06/20 06:36:49;;;;;;;13.68;12.00;;;19.70;99.90;;;;;;5055067;28;20086;-79
2023/06/20 06:39:18;;;;;;;13.65;11.75;;;19.80;99.90;;;;;;5067020;28;20124;-77
2023/06/20 06:41:49;;;;;;;14.98;11.38;;;19.80;99.90;;;;;;5032166;28;20075;-79
2023/06/20 06:44:15;;;;;;;12.77;11.48;;;19.90;99.90;;;;;;5063596;28;20116;-78
2023/06/20 06:46:41;;;;;;;14.75;12.38;;;20.00;99.90;;;;;;5052269;28;20530;-77
2023/06/20 06:49:08;;;;;;;14.05;11.60;;;20.00;99.90;;;;;;5067520;28;20029;-77
2023/06/20 06:51:34;;;;;;;13.48;11.13;;;20.10;99.90;;;;;;5043405;28;20029;-80
2023/06/20 06:53:59;;;;;;;13.82;12.20;;;20.20;99.90;;;;;;5036699;28;20048;-75
2023/06/20 06:56:25;;;;;;;15.00;12.05;;;20.30;99.90;;;;;;5025720;28;20081;-80
2023/06/20 06:58:53;;;;;;;13.82;11.57;;;20.50;99.90;;;;;;5022394;28;20048;-76
2023/06/20 07:01:19;;;;;;;13.00;11.57;;;20.60;99.90;;;;;;5080549;28;20028;-77
2023/06/20 07:03:44;;;;;;;12.68;10.63;;;20.70;99.90;;;;;;5053997;28;20606;-77
2023/06/20 07:06:10;;;;;;;12.63;10.55;;;20.70;99.90;;;;;;5026242;28;20037;-78
2023/06/20 07:08:35;;;;;;;11.23;10.05;;;20.80;99.90;;;;;;5051263;28;20127;-77
2023/06/20 07:11:01;;;;;;;11.63;10.43;;;20.90;99.90;;;;;;5037222;28;20045;-76
2023/06/20 07:13:27;;;;;;;12.13;10.82;;;21.10;99.90;;;;;;5057140;28;20032;-80
2023/06/20 07:15:52;;;;;;;11.20;9.73;;;21.10;99.90;;;;;;5029443;28;20039;-76
2023/06/20 07:18:18;;;;;;;10.93;9.05;;;21.20;99.90;;;;;;5067169;28;20055;-78
2023/06/20 07:20:44;;;;;;;10.07;8.98;;;21.20;99.90;;;;;;5065517;28;20143;-75
2023/06/20 07:23:10;;;;;;;12.80;9.32;;;21.50;99.90;;;;;;5081665;28;20082;-78
2023/06/20 07:25:35;;;;;;;11.20;10.07;;;21.60;99.90;;;;;;5039670;28;20036;-79
2023/06/20 07:28:01;;;;;;;11.35;9.23;;;21.70;99.90;;;;;;5047835;28;20079;-75
2023/06/20 07:30:27;;;;;;;11.45;10.05;;;21.70;99.90;;;;;;5079479;28;20041;-75
2023/06/20 07:32:52;;;;;;;10.48;9.38;;;21.70;99.90;;;;;;5035879;28;20653;-73
2023/06/20 07:35:18;;;;;;;11.95;9.73;;;22.00;99.90;;;;;;5066076;28;20039;-76
2023/06/20 07:37:44;;;;;;;11.65;10.45;;;22.00;99.90;;;;;;5029304;28;20094;-78
2023/06/20 07:40:10;;;;;;;11.95;10.70;;;22.20;99.90;;;;;;5032260;28;20029;-76
2023/06/20 07:42:36;;;;;;;11.15;9.38;;;22.20;99.90;;;;;;5042289;28;20048;-76
2023/06/20 07:45:02;;;;;;;11.80;9.85;;;22.20;99.90;;;;;;5048156;28;20037;-78
2023/06/20 07:47:27;;;;;;;11.15;10.05;;;22.20;99.90;;;;;;5048682;28;20385;-73
2023/06/20 07:49:53;;;;;;;10.65;9.20;;;22.30;99.90;;;;;;5034688;28;20523;-74
2023/06/20 07:52:18;;;;;;;8.98;8.07;;;22.40;99.90;;;;;;5092404;28;20033;-76
2023/06/20 07:54:44;;;;;;;14.52;9.45;;;22.40;99.90;;;;;;5055370;28;20052;-75
2023/06/20 07:57:10;;;;;;;10.35;9.43;;;22.50;99.90;;;;;;5054655;28;20048;-75
2023/06/20 07:59:36;;;;;;;10.48;8.07;;;22.50;99.90;;;;;;5071654;28;20742;-75
2023/06/20 08:02:01;;;;;;;8.43;7.53;;;22.70;99.90;;;;;;5068223;28;20083;-73
2023/06/20 08:04:27;;;;;;;11.52;10.32;;;22.50;99.90;;;;;;5052022;28;20036;-76
2023/06/20 08:06:52;;;;;;;10.60;9.50;;;22.30;99.90;;;;;;5036030;28;20056;-76
2023/06/20 08:09:18;;;;;;;10.43;9.38;;;22.40;99.90;;;;;;5054495;28;20037;-76
2023/06/20 08:11:44;;;;;;;10.55;9.48;;;22.50;99.90;;;;;;5070746;28;20083;-76
2023/06/20 08:14:12;;;;;;;10.93;9.75;;;22.50;99.90;;;;;;5054259;28;20037;-75
2023/06/20 08:16:38;;;;;;;9.95;7.97;;;22.80;99.90;;;;;;5067591;28;20037;-76
2023/06/20 08:19:04;;;;;;;10.40;8.68;;;22.50;99.90;;;;;;5051741;28;20079;-77
2023/06/20 08:21:29;;;;;;;9.98;9.00;;;22.60;99.90;;;;;;5050017;28;20060;-76
2023/06/20 08:23:55;;;;;;;11.80;9.98;;;22.60;99.90;;;;;;5041421;28;20099;-77
2023/06/20 08:26:20;;;;;;;12.20;10.63;;;22.50;99.90;;;;;;5034399;28;20071;-76
2023/06/20 08:28:46;;;;;;;10.65;9.57;;;22.40;99.90;;;;;;5033881;28;20131;-76
2023/06/20 08:31:12;;;;;;;12.00;10.55;;;22.70;99.90;;;;;;5054122;28;20036;-75
2023/06/20 08:33:38;;;;;;;10.63;9.60;;;22.80;99.90;;;;;;5068272;28;20492;-77
2023/06/20 08:36:04;;;;;;;10.68;9.57;;;22.70;99.90;;;;;;5017784;28;20393;-76
2023/06/20 08:38:30;;;;;;;10.00;9.07;;;22.70;99.90;;;;;;5039066;28;20082;-76
2023/06/20 08:40:55;;;;;;;11.52;10.32;;;22.50;99.90;;;;;;5034908;28;20124;-75
2023/06/20 08:43:21;;;;;;;9.32;7.93;;;22.70;99.90;;;;;;5073507;28;20045;-75
2023/06/20 08:45:47;;;;;;;12.02;10.80;;;22.90;99.90;;;;;;5054567;28;20039;-76
2023/06/20 08:48:12;;;;;;;9.18;8.27;;;22.80;99.90;;;;;;5033660;28;20036;-77
2023/06/20 08:50:38;;;;;;;12.23;9.85;;;22.70;99.90;;;;;;5084737;28;20508;-76
2023/06/20 08:53:06;;;;;;;10.82;9.73;;;22.80;99.90;;;;;;5065664;28;20676;-75
2023/06/20 08:55:33;;;;;;;11.43;9.50;;;22.60;99.90;;;;;;5051450;28;20116;-76
2023/06/20 08:57:59;;;;;;;10.85;9.80;;;22.80;99.90;;;;;;5049483;28;20135;-77
2023/06/20 09:00:25;;;;;;;11.25;10.00;;;22.90;99.90;;;;;;5033029;28;20143;-77
2023/06/20 09:02:54;;;;;;;10.88;9.85;;;22.80;99.90;;;;;;5022159;28;20160;-76
2023/06/20 09:05:20;;;;;;;10.98;9.90;;;22.80;99.90;;;;;;5068336;28;20049;-77
2023/06/20 09:07:47;;;;;;;11.98;10.88;;;22.80;99.90;;;;;;5050669;28;20048;-77
2023/06/20 09:10:19;;;;;;;11.32;10.25;;;23.10;99.90;;;;;;5033354;28;20051;-79
2023/06/20 09:12:58;;;;;;;9.43;8.45;;;23.20;99.90;;;;;;5037244;28;20048;-77
2023/06/20 09:15:28;;;;;;;10.95;9.85;;;23.20;99.90;;;;;;5057831;28;20111;-74
2023/06/20 09:17:56;;;;;;;10.20;9.20;;;23.40;99.90;;;;;;5048918;28;20063;-75
2023/06/20 09:20:26;;;;;;;10.02;8.95;;;23.50;99.90;;;;;;5043709;28;20055;-74
2023/06/20 09:22:52;;;;;;;10.35;9.32;;;23.90;99.90;;;;;;5034449;28;20044;-74
2023/06/20 09:25:27;;;;;;;10.65;9.55;;;23.70;99.90;;;;;;5069296;28;20051;-75
2023/06/20 09:27:54;;;;;;;10.25;9.25;;;23.80;99.90;;;;;;5064412;28;20060;-75
2023/06/20 09:30:20;;;;;;;9.52;8.52;;;23.90;99.90;;;;;;5053456;28;20048;-75
2023/06/20 09:32:45;;;;;;;10.15;9.15;;;23.90;99.90;;;;;;5048113;28;20040;-76
2023/06/20 09:35:14;;;;;;;9.93;9.02;;;24.00;99.90;;;;;;5065184;28;20985;-74
2023/06/20 09:37:39;;;;;;;11.13;9.52;;;24.20;99.90;;;;;;5063555;28;20033;-74
2023/06/20 09:40:10;;;;;;;10.40;9.40;;;24.20;99.90;;;;;;5049087;28;20044;-75
2023/06/20 09:42:37;;;;;;;9.65;8.65;;;24.30;99.90;;;;;;5056676;28;20029;-75
2023/06/20 09:45:03;;;;;;;10.98;9.35;;;24.20;99.90;;;;;;5052144;28;20493;-74
2023/06/20 09:47:29;;;;;;;10.15;9.10;;;24.30;99.90;;;;;;5052075;28;20041;-73
2023/06/20 09:49:58;;;;;;;9.75;8.75;;;24.20;99.90;;;;;;5039599;28;20497;-76
2023/06/20 09:52:36;;;;;;;10.13;9.13;;;24.40;99.90;;;;;;5062056;28;20045;-74
2023/06/20 09:55:09;;;;;;;8.75;7.93;;;24.40;99.90;;;;;;5065845;28;20056;-73
2023/06/20 09:57:40;;;;;;;9.70;8.73;;;24.40;99.90;;;;;;5053556;28;20076;-75
2023/06/20 10:00:15;;;;;;;9.23;7.85;;;24.40;99.90;;;;;;5051998;28;20483;-74
2023/06/20 10:02:45;;;;;;;9.93;8.93;;;24.40;99.90;;;;;;5067165;28;20052;-75
2023/06/20 10:05:18;;;;;;;9.13;8.32;;;24.50;99.90;;;;;;5045003;28;20107;-75
2023/06/20 10:07:46;;;;;;;9.35;8.45;;;25.10;99.90;;;;;;5058052;28;20515;-73
2023/06/20 10:10:13;;;;;;;9.85;8.95;;;25.40;99.90;;;;;;5071118;28;20040;-76
2023/06/20 10:12:40;;;;;;;8.35;7.65;;;26.10;99.90;;;;;;5079164;28;20706;-73
2023/06/20 10:15:07;;;;;;;7.85;6.72;;;26.40;99.90;;;;;;5057710;28;20057;-76
2023/06/20 10:17:38;;;;;;;8.80;6.47;;;26.00;99.90;;;;;;5045704;28;20033;-73
2023/06/20 10:20:08;;;;;;;6.90;6.20;;;26.50;99.90;;;;;;5068268;28;20049;-74
2023/06/20 10:22:41;;;;;;;7.18;6.38;;;26.70;99.90;;;;;;5047371;28;20548;-74
2023/06/20 10:25:14;;;;;;;8.07;7.32;;;27.10;99.90;;;;;;5041621;28;20040;-72
2023/06/20 10:27:52;;;;;;;7.45;6.82;;;26.90;99.90;;;;;;5069930;28;20052;-73
2023/06/20 10:30:50;;;;;;;7.57;6.57;;;27.20;99.90;;;;;;5061486;28;20044;-73
2023/06/20 10:33:43;;;;;;;6.32;5.72;;;27.40;99.90;;;;;;5034515;28;20048;-75
2023/06/20 10:36:10;;;;;;;6.10;5.55;;;27.60;99.90;;;;;;5056339;28;20059;-72
2023/06/20 10:38:38;;;;;;;6.65;6.03;;;27.40;99.90;;;;;;5064497;28;20044;-73
2023/06/20 10:41:22;;;;;;;6.07;5.47;;;27.60;99.90;;;;;;5071558;28;20031;-73
2023/06/20 10:43:54;;;;;;;8.43;6.40;;;27.30;99.90;;;;;;5066391;28;20044;-74
2023/06/20 10:46:27;;;;;;;8.25;7.45;;;27.40;99.90;;;;;;5062592;28;20429;-73
2023/06/20 10:48:53;;;;;;;7.25;6.30;;;27.40;99.90;;;;;;5059053;28;20075;-73
2023/06/20 10:51:19;;;;;;;10.50;7.82;;;27.20;99.90;;;;;;5067473;28;20863;-74
2023/06/20 10:53:45;;;;;;;6.90;6.20;;;27.80;99.90;;;;;;5035480;28;20447;-73
2023/06/20 10:56:24;;;;;;;7.97;6.60;;;27.70;99.90;;;;;;5040698;28;20506;-74
2023/06/20 10:58:50;;;;;;;6.55;6.00;;;28.00;99.90;;;;;;5065772;28;20040;-75
2023/06/20 11:01:18;;;;;;;6.97;6.07;;;27.70;99.90;;;;;;5030367;28;20032;-72
2023/06/20 11:03:45;;;;;;;8.38;6.30;;;27.90;99.90;;;;;;5045752;28;20611;-74
2023/06/20 11:06:15;;;;;;;6.50;5.90;;;28.20;99.90;;;;;;5058259;28;20072;-75
2023/06/20 11:08:44;;;;;;;6.68;6.07;;;27.80;99.90;;;;;;5049833;28;20061;-72
2023/06/20 11:11:10;;;;;;;6.65;5.82;;;27.90;99.90;;;;;;5066952;28;20504;-73
2023/06/20 11:13:41;;;;;;;6.50;5.97;;;28.30;99.90;;;;;;5066177;28;20041;-73
2023/06/20 11:16:06;;;;;;;6.70;6.07;;;28.00;99.90;;;;;;5060724;28;20133;-72
2023/06/20 11:18:34;;;;;;;5.63;5.13;;;28.40;99.90;;;;;;5039376;28;20068;-73
2023/06/20 11:20:59;;;;;;;7.38;6.68;;;28.00;99.90;;;;;;5049959;28;20126;-73
2023/06/20 11:23:34;;;;;;;7.07;6.40;;;28.30;99.90;;;;;;5051501;28;20191;-73
2023/06/20 11:26:00;;;;;;;7.05;6.43;;;28.30;99.90;;;;;;5047586;28;20048;-74
2023/06/20 11:28:26;;;;;;;6.72;6.13;;;28.10;99.90;;;;;;5065606;28;20041;-74
2023/06/20 11:30:52;;;;;;;8.73;7.00;;;28.30;99.90;;;;;;5035323;28;20177;-75
2023/06/20 11:33:18;;;;;;;6.88;6.20;;;28.30;99.90;;;;;;5035154;28;20405;-74
2023/06/20 11:35:44;;;;;;;6.60;6.10;;;28.20;99.90;;;;;;5061216;28;20037;-73
2023/06/20 11:38:11;;;;;;;6.75;6.15;;;28.00;99.90;;;;;;5042694;28;20041;-75
2023/06/20 11:40:38;;;;;;;5.50;5.00;;;28.20;99.90;;;;;;5066710;28;20125;-74
2023/06/20 11:43:04;;;;;;;7.05;6.45;;;28.30;99.90;;;;;;5066819;28;20062;-72
2023/06/20 11:45:30;;;;;;;6.75;6.15;;;28.60;99.90;;;;;;5051499;28;20083;-73
2023/06/20 11:48:12;;;;;;;7.40;6.70;;;28.70;99.90;;;;;;5042329;28;20075;-74
2023/06/20 11:50:41;;;;;;;7.95;7.15;;;28.20;99.90;;;;;;5046565;28;20357;-73
2023/06/20 11:53:17;;;;;;;6.90;6.20;;;28.30;99.90;;;;;;5063914;28;20123;-72
2023/06/20 11:55:57;;;;;;;7.82;7.13;;;28.30;99.90;;;;;;5067991;28;20049;-72
2023/06/20 11:58:26;;;;;;;8.63;7.90;;;28.60;99.90;;;;;;5049221;28;20411;-74
2023/06/20 12:01:04;;;;;;;7.30;6.70;;;28.50;99.90;;;;;;5050468;28;20473;-73
2023/06/20 12:03:31;;;;;;;6.55;5.95;;;28.20;99.90;;;;;;5051929;28;20072;-73
2023/06/20 12:05:57;;;;;;;6.50;5.82;;;27.90;99.90;;;;;;5033199;28;20049;-72
2023/06/20 12:08:33;;;;;;;7.03;6.43;;;28.40;99.90;;;;;;5051588;28;20059;-73
2023/06/20 12:11:03;;;;;;;7.53;6.93;;;28.90;99.90;;;;;;5044952;28;20100;-73
2023/06/20 12:13:32;;;;;;;8.95;8.05;;;28.60;99.90;;;;;;5055893;28;20036;-74
2023/06/20 12:15:58;;;;;;;8.90;7.28;;;29.20;99.90;;;;;;5048858;28;20048;-74
2023/06/20 12:18:23;;;;;;;9.10;7.10;;;28.80;99.90;;;;;;5064365;28;20487;-74
2023/06/20 12:20:49;;;;;;;6.90;6.30;;;28.90;99.90;;;;;;5054668;28;20044;-73
2023/06/20 12:23:15;;;;;;;6.72;6.13;;;28.90;99.90;;;;;;5041681;28;20052;-73
2023/06/20 12:25:41;;;;;;;5.97;5.47;;;29.00;99.90;;;;;;5048046;28;20049;-73
2023/06/20 12:28:06;;;;;;;6.82;6.13;;;28.60;99.90;;;;;;5071144;28;20040;-73
2023/06/20 12:30:34;;;;;;;5.72;5.22;;;28.30;99.90;;;;;;5064291;28;20042;-74
2023/06/20 12:33:00;;;;;;;5.93;5.43;;;28.60;99.90;;;;;;5041929;28;20562;-72
2023/06/20 12:35:26;;;;;;;6.10;5.50;;;28.50;95.60;;;;;;5077636;28;20393;-71
2023/06/20 12:37:52;;;;;;;6.32;5.38;;;28.50;82.20;;;;;;5044440;28;20047;-73